createdAt,value
2022-11-09T00:01:01.568Z,9.96
2022-11-09T00:03:27.966Z,9.93
2022-11-09T00:05:58.768Z,9.85
2022-11-09T00:08:26.063Z,9.83
2022-11-09T00:10:53.540Z,9.75
2022-11-09T00:13:20.912Z,9.78
2022-11-09T00:15:47.657Z,9.81
2022-11-09T00:18:14.107Z,9.80
2022-11-09T00:20:46.938Z,9.65
2022-11-09T00:23:14.386Z,9.64
2022-11-09T00:25:40.796Z,9.66
2022-11-09T00:28:07.200Z,9.63
2022-11-09T00:30:33.766Z,9.60
2022-11-09T00:33:00.195Z,9.48
2022-11-09T00:35:26.901Z,9.49
2022-11-09T00:37:54.235Z,9.41
2022-11-09T00:40:20.716Z,9.37
2022-11-09T00:42:47.139Z,9.35
2022-11-09T00:45:13.540Z,9.32
2022-11-09T00:47:40.003Z,9.30
2022-11-09T00:50:06.998Z,9.28
2022-11-09T00:52:33.500Z,9.18
2022-11-09T00:54:59.970Z,9.22
2022-11-09T00:57:26.370Z,9.12
2022-11-09T00:59:53.789Z,9.13
2022-11-09T01:02:20.260Z,9.11
2022-11-09T01:04:46.681Z,9.06
2022-11-09T01:07:13.122Z,9.04
2022-11-09T01:09:39.587Z,9.03
2022-11-09T01:12:05.981Z,9.01
2022-11-09T01:14:32.442Z,8.96
2022-11-09T01:16:58.884Z,8.98
2022-11-09T01:19:25.311Z,8.96
2022-11-09T01:21:51.727Z,8.98
2022-11-09T01:24:18.121Z,8.93
2022-11-09T01:26:44.558Z,8.95
2022-11-09T01:29:10.937Z,8.91
2022-11-09T01:31:37.488Z,8.88
2022-11-09T01:34:03.908Z,8.93
2022-11-09T01:36:31.039Z,8.91
2022-11-09T01:38:57.541Z,8.92
2022-11-09T01:41:26.178Z,8.86
2022-11-09T01:44:15.404Z,8.91
2022-11-09T01:46:48.058Z,8.91
2022-11-09T01:49:24.237Z,8.93
2022-11-09T01:52:00.589Z,8.87
2022-11-09T01:54:35.360Z,8.82
2022-11-09T01:57:06.176Z,8.77
2022-11-09T01:59:39.739Z,8.71
2022-11-09T02:02:06.465Z,8.83
2022-11-09T02:04:38.400Z,8.84
2022-11-09T02:07:06.076Z,8.88
2022-11-09T02:09:40.897Z,8.82
2022-11-09T02:12:08.068Z,8.85
2022-11-09T02:14:36.079Z,8.83
2022-11-09T02:17:02.661Z,8.89
2022-11-09T02:19:29.040Z,8.88
2022-11-09T02:21:55.515Z,8.88
2022-11-09T02:24:21.987Z,8.85
2022-11-09T02:26:51.196Z,8.85
2022-11-09T02:29:22.221Z,8.83
2022-11-09T02:31:54.364Z,8.84
2022-11-09T02:34:22.090Z,8.84
2022-11-09T02:36:48.701Z,8.78
2022-11-09T02:39:17.878Z,8.85
2022-11-09T02:41:48.216Z,8.84
2022-11-09T02:44:16.390Z,8.78
2022-11-09T02:46:42.930Z,8.75
2022-11-09T02:49:09.422Z,8.76
2022-11-09T02:51:36.365Z,8.74
2022-11-09T02:54:02.804Z,8.71
2022-11-09T02:56:29.316Z,8.74
2022-11-09T02:58:55.763Z,8.74
2022-11-09T03:01:22.389Z,8.72
2022-11-09T03:03:48.952Z,8.73
2022-11-09T03:06:15.415Z,8.67
2022-11-09T03:08:41.838Z,8.60
2022-11-09T03:11:08.385Z,8.58
2022-11-09T03:13:34.833Z,8.56
2022-11-09T03:16:08.394Z,8.50
2022-11-09T03:18:34.828Z,8.52
2022-11-09T03:21:05.730Z,8.48
2022-11-09T03:23:32.506Z,8.46
2022-11-09T03:25:58.973Z,8.43
2022-11-09T03:28:25.422Z,8.39
2022-11-09T03:30:52.045Z,8.52
2022-11-09T03:33:18.835Z,8.54
2022-11-09T03:35:45.678Z,8.55
2022-11-09T03:38:13.341Z,8.51
2022-11-09T03:40:39.947Z,8.45
2022-11-09T03:43:06.595Z,8.40
2022-11-09T03:45:33.111Z,8.37
2022-11-09T03:48:00.592Z,8.33
2022-11-09T03:50:28.630Z,8.35
2022-11-09T03:52:55.210Z,8.28
2022-11-09T03:55:21.663Z,8.34
2022-11-09T03:57:48.127Z,8.30
2022-11-09T04:00:17.083Z,8.33
2022-11-09T04:02:43.569Z,8.32
2022-11-09T04:05:10.504Z,8.34
2022-11-09T04:07:37.927Z,8.29
2022-11-09T04:10:05.541Z,8.27
2022-11-09T04:12:32.186Z,8.14
2022-11-09T04:14:58.965Z,8.22
2022-11-09T04:17:25.415Z,8.25
2022-11-09T04:19:51.794Z,8.26
2022-11-09T04:22:18.160Z,8.25
2022-11-09T04:24:44.619Z,8.28
2022-11-09T04:27:11.116Z,8.25
2022-11-09T04:29:37.552Z,8.25
2022-11-09T04:32:04.011Z,8.22
2022-11-09T04:34:30.413Z,8.31
2022-11-09T04:36:56.867Z,8.37
2022-11-09T04:39:23.250Z,8.44
2022-11-09T04:41:49.711Z,8.47
2022-11-09T04:44:16.108Z,8.46
2022-11-09T04:46:42.984Z,8.50
2022-11-09T04:49:09.417Z,8.52
2022-11-09T04:51:35.825Z,8.45
2022-11-09T04:54:02.273Z,8.48
2022-11-09T04:56:28.725Z,8.59
2022-11-09T04:58:55.122Z,8.54
2022-11-09T05:01:21.544Z,8.61
2022-11-09T05:03:48.036Z,8.64
2022-11-09T05:06:33.087Z,8.64
2022-11-09T05:09:07.496Z,8.70
2022-11-09T05:11:35.443Z,8.68
2022-11-09T05:14:02.562Z,8.73
2022-11-09T05:16:29.883Z,8.73
2022-11-09T05:18:56.329Z,8.73
2022-11-09T05:21:23.249Z,8.74
2022-11-09T05:24:02.983Z,8.75
2022-11-09T05:26:37.742Z,8.72
2022-11-09T05:29:06.741Z,8.73
2022-11-09T05:31:33.667Z,8.57
2022-11-09T05:34:00.653Z,8.81
2022-11-09T05:36:28.494Z,8.83
2022-11-09T05:38:55.125Z,8.85
2022-11-09T05:41:21.549Z,8.87
2022-11-09T05:43:48.000Z,8.88
2022-11-09T05:46:15.545Z,8.91
2022-11-09T05:48:43.207Z,8.90
2022-11-09T05:51:11.710Z,8.87
2022-11-09T05:53:41.171Z,8.94
2022-11-09T05:56:13.002Z,8.86
2022-11-09T05:58:41.306Z,8.94
2022-11-09T06:01:10.321Z,8.84
2022-11-09T06:03:37.009Z,8.92
2022-11-09T06:06:08.656Z,8.93
2022-11-09T06:08:36.135Z,8.94
2022-11-09T06:11:05.686Z,8.90
2022-11-09T06:13:32.946Z,8.83
2022-11-09T06:16:01.073Z,8.87
2022-11-09T06:18:29.388Z,8.86
2022-11-09T06:20:58.279Z,8.85
2022-11-09T06:23:25.832Z,8.86
2022-11-09T06:26:06.388Z,8.83
2022-11-09T06:28:33.241Z,8.82
2022-11-09T06:31:01.011Z,8.86
2022-11-09T06:33:29.710Z,8.90
2022-11-09T06:35:56.956Z,8.93
2022-11-09T06:38:23.916Z,8.98
2022-11-09T06:40:54.936Z,8.99
2022-11-09T06:43:22.156Z,8.98
2022-11-09T06:45:48.925Z,8.97
2022-11-09T06:48:15.336Z,8.98
2022-11-09T06:50:42.094Z,9.00
2022-11-09T06:53:11.477Z,9.07
2022-11-09T06:55:37.919Z,9.12
2022-11-09T06:58:14.267Z,9.13
2022-11-09T07:00:40.659Z,9.15
2022-11-09T07:03:07.279Z,9.19
2022-11-09T07:05:38.890Z,9.24
2022-11-09T07:08:05.949Z,9.26
2022-11-09T07:10:32.369Z,9.22
2022-11-09T07:12:59.095Z,9.25
2022-11-09T07:15:25.704Z,9.28
2022-11-09T07:17:52.124Z,9.28
2022-11-09T07:20:18.600Z,9.32
2022-11-09T07:22:49.387Z,9.40
2022-11-09T07:25:15.852Z,9.39
2022-11-09T07:27:42.313Z,9.53
2022-11-09T07:30:09.769Z,9.57
2022-11-09T07:35:23.772Z,9.81
2022-11-09T07:37:50.179Z,9.90
2022-11-09T07:40:16.724Z,9.79
2022-11-09T07:42:43.575Z,9.95
2022-11-09T07:45:10.241Z,10.13
2022-11-09T07:47:37.306Z,10.13
2022-11-09T07:50:04.385Z,9.99
2022-11-09T07:52:30.833Z,10.16
2022-11-09T07:54:57.251Z,10.18
2022-11-09T07:57:23.711Z,10.20
2022-11-09T07:59:51.817Z,10.13
2022-11-09T08:02:18.274Z,10.20
2022-11-09T08:04:44.751Z,10.27
2022-11-09T08:07:11.239Z,10.18
2022-11-09T08:09:37.755Z,10.23
2022-11-09T08:12:04.222Z,10.22
2022-11-09T08:14:30.673Z,10.23
2022-11-09T08:16:57.138Z,10.23
2022-11-09T08:19:23.556Z,10.17
2022-11-09T08:21:50.059Z,10.31
2022-11-09T08:24:16.620Z,10.23
2022-11-09T08:26:43.078Z,10.23
2022-11-09T08:29:09.668Z,10.10
2022-11-09T08:31:36.141Z,10.09
2022-11-09T08:34:02.619Z,10.16
2022-11-09T08:36:29.845Z,10.14
2022-11-09T08:38:59.152Z,10.21
2022-11-09T08:41:25.639Z,10.20
2022-11-09T08:43:52.059Z,10.20
2022-11-09T08:46:18.547Z,10.42
2022-11-09T08:48:44.973Z,10.42
2022-11-09T08:51:11.437Z,10.40
2022-11-09T08:53:37.899Z,10.45
2022-11-09T08:56:08.157Z,10.59
2022-11-09T08:58:36.096Z,10.64
2022-11-09T09:01:10.954Z,10.66
2022-11-09T09:03:40.280Z,10.72
2022-11-09T09:06:07.699Z,10.73
2022-11-09T09:08:34.473Z,10.75
2022-11-09T09:11:07.019Z,10.81
2022-11-09T09:13:35.783Z,10.88
2022-11-09T09:16:13.135Z,10.65
2022-11-09T09:18:39.653Z,10.87
2022-11-09T09:21:07.987Z,10.87
2022-11-09T09:23:34.440Z,10.84
2022-11-09T09:26:00.905Z,10.82
2022-11-09T09:28:27.336Z,10.74
2022-11-09T09:30:54.118Z,10.64
2022-11-09T09:33:20.829Z,10.61
2022-11-09T09:35:47.269Z,10.61
2022-11-09T09:38:13.695Z,10.52
2022-11-09T09:41:03.384Z,10.52
2022-11-09T09:43:55.994Z,10.52
2022-11-09T09:46:32.449Z,10.39
2022-11-09T09:49:05.762Z,10.58
2022-11-09T09:51:43.043Z,10.57
2022-11-09T09:54:19.811Z,10.67
2022-11-09T09:56:49.064Z,10.72
2022-11-09T09:59:24.442Z,10.60
2022-11-09T10:01:51.079Z,10.58
2022-11-09T10:04:21.590Z,10.67
2022-11-09T10:07:01.119Z,10.71
2022-11-09T10:09:33.640Z,10.77
2022-11-09T10:12:15.975Z,10.70
2022-11-09T10:15:03.151Z,10.81
2022-11-09T10:17:41.241Z,10.85
2022-11-09T10:20:15.783Z,10.84
2022-11-09T10:23:01.401Z,10.89
2022-11-09T10:26:02.216Z,11.01
2022-11-09T10:28:17.900Z,10.98
2022-11-09T10:30:44.591Z,10.90
2022-11-09T10:33:10.962Z,10.98
2022-11-09T10:36:18.557Z,11.26
2022-11-09T10:38:49.849Z,11.27
2022-11-09T10:41:38.015Z,11.23
2022-11-09T10:44:04.644Z,11.10
2022-11-09T10:46:31.546Z,11.00
2022-11-09T10:49:19.187Z,11.07
2022-11-09T10:51:46.601Z,11.01
2022-11-09T10:54:24.452Z,10.98
2022-11-09T10:57:13.031Z,10.94
2022-11-09T10:59:51.013Z,10.97
2022-11-09T11:02:47.526Z,11.12
2022-11-09T11:05:17.016Z,11.25
2022-11-09T11:07:44.958Z,11.26
2022-11-09T11:10:21.379Z,11.23
2022-11-09T11:13:21.145Z,11.08
2022-11-09T11:15:48.190Z,11.06
2022-11-09T11:18:24.445Z,11.20
2022-11-09T11:21:05.155Z,11.24
2022-11-09T11:23:36.840Z,11.27
2022-11-09T11:26:11.585Z,11.48
2022-11-09T11:29:01.726Z,11.60
2022-11-09T11:31:28.712Z,11.56
2022-11-09T11:33:56.444Z,11.43
2022-11-09T11:36:56.514Z,11.51
2022-11-09T11:39:41.903Z,11.45
2022-11-09T11:42:22.185Z,11.56
2022-11-09T11:45:02.926Z,11.66
2022-11-09T11:47:44.326Z,11.64
2022-11-09T11:50:36.879Z,11.50
2022-11-09T11:53:22.562Z,11.31
2022-11-09T11:56:30.640Z,11.28
2022-11-09T11:59:29.273Z,11.64
2022-11-09T12:02:03.942Z,11.64
2022-11-09T12:04:47.698Z,11.73
2022-11-09T12:07:20.310Z,11.45
2022-11-09T12:09:58.187Z,11.67
2022-11-09T12:12:49.941Z,11.43
2022-11-09T12:15:43.517Z,11.57
2022-11-09T12:18:34.698Z,11.53
2022-11-09T12:21:39.316Z,11.52
2022-11-09T12:24:29.354Z,11.49
2022-11-09T12:27:35.809Z,11.30
2022-11-09T12:30:18.926Z,11.21
2022-11-09T12:32:56.632Z,11.28
2022-11-09T12:35:32.171Z,11.28
2022-11-09T12:38:10.898Z,11.30
2022-11-09T12:40:42.618Z,11.27
2022-11-09T12:43:27.280Z,11.34
2022-11-09T12:45:54.505Z,11.16
2022-11-09T12:48:22.946Z,11.23
2022-11-09T12:50:51.256Z,11.37
2022-11-09T12:53:19.767Z,11.58
2022-11-09T12:56:05.198Z,11.83
2022-11-09T12:58:35.500Z,12.01
2022-11-09T13:01:04.631Z,12.12
2022-11-09T13:03:34.007Z,12.18
2022-11-09T13:06:11.189Z,12.10
2022-11-09T13:08:40.004Z,12.35
2022-11-09T13:11:22.511Z,12.09
2022-11-09T13:13:49.138Z,12.06
2022-11-09T13:16:34.800Z,12.03
2022-11-09T13:19:03.088Z,12.13
2022-11-09T13:21:33.527Z,12.13
2022-11-09T13:24:31.941Z,11.67
2022-11-09T13:27:03.195Z,11.76
2022-11-09T13:29:41.781Z,11.99
2022-11-09T13:32:11.208Z,12.18
2022-11-09T13:34:54.590Z,12.11
2022-11-09T13:37:39.875Z,12.18
2022-11-09T13:40:31.580Z,11.96
2022-11-09T13:43:10.126Z,11.70
2022-11-09T13:45:39.173Z,11.63
2022-11-09T13:48:06.722Z,11.78
2022-11-09T13:50:35.316Z,11.71
2022-11-09T13:53:02.585Z,11.76
2022-11-09T13:55:41.294Z,11.75
2022-11-09T13:58:24.444Z,11.52
2022-11-09T14:00:50.923Z,11.50
2022-11-09T14:03:26.608Z,11.44
2022-11-09T14:05:57.459Z,11.29
2022-11-09T14:08:44.449Z,11.14
2022-11-09T14:11:31.569Z,11.14
2022-11-09T14:14:25.901Z,11.12
2022-11-09T14:17:11.187Z,11.09
2022-11-09T14:20:11.508Z,10.96
2022-11-09T14:22:40.433Z,11.12
2022-11-09T14:25:16.137Z,11.07
2022-11-09T14:27:57.097Z,10.99
2022-11-09T14:30:32.592Z,10.90
2022-11-09T14:33:00.563Z,10.75
2022-11-09T14:35:29.419Z,10.87
2022-11-09T14:37:58.320Z,10.84
2022-11-09T14:40:31.767Z,10.71
2022-11-09T14:43:19.121Z,10.67
2022-11-09T14:46:17.045Z,10.54
2022-11-09T14:48:51.865Z,10.31
2022-11-09T14:51:19.543Z,10.22
2022-11-09T14:53:47.400Z,10.15
2022-11-09T14:56:21.517Z,10.34
2022-11-09T14:58:49.975Z,10.19
2022-11-09T15:01:24.052Z,10.17
2022-11-09T15:04:12.261Z,10.10
2022-11-09T15:07:05.537Z,10.02
2022-11-09T15:09:41.636Z,9.93
2022-11-09T15:12:19.935Z,9.84
2022-11-09T15:14:53.661Z,9.70
2022-11-09T15:17:26.637Z,9.70
2022-11-09T15:20:06.841Z,9.63
2022-11-09T15:22:52.213Z,9.59
2022-11-09T15:25:35.892Z,9.58
2022-11-09T15:28:08.437Z,9.52
2022-11-09T15:30:56.800Z,9.47
2022-11-09T15:33:52.344Z,9.45
2022-11-09T15:36:31.865Z,9.41
2022-11-09T15:39:00.386Z,9.37
2022-11-09T15:41:28.150Z,9.36
2022-11-09T15:43:55.127Z,9.40
2022-11-09T15:46:28.318Z,9.38
2022-11-09T15:48:59.166Z,9.41
2022-11-09T15:51:25.791Z,9.36
2022-11-09T15:53:52.364Z,9.36
2022-11-09T15:56:22.078Z,9.32
2022-11-09T15:58:49.363Z,9.33
2022-11-09T16:01:16.222Z,9.38
2022-11-09T16:03:42.843Z,9.37
2022-11-09T16:06:15.857Z,9.31
2022-11-09T16:08:42.430Z,9.30
2022-11-09T16:11:10.452Z,9.46
2022-11-09T16:13:37.018Z,9.54
2022-11-09T16:16:05.560Z,9.61
2022-11-09T16:18:32.691Z,9.64
2022-11-09T16:21:14.941Z,9.64
2022-11-09T16:23:41.765Z,9.69
2022-11-09T16:26:10.582Z,9.70
2022-11-09T16:28:37.759Z,9.77
2022-11-09T16:31:04.315Z,9.80
2022-11-09T16:33:31.084Z,9.67
2022-11-09T16:36:00.700Z,9.69
2022-11-09T16:38:34.396Z,9.67
2022-11-09T16:41:03.009Z,9.65
2022-11-09T16:43:36.336Z,9.62
2022-11-09T16:46:03.008Z,9.60
2022-11-09T16:48:33.201Z,9.56
2022-11-09T16:51:00.262Z,9.58
2022-11-09T16:53:27.416Z,9.46
2022-11-09T16:55:54.302Z,9.51
2022-11-09T16:58:21.196Z,9.45
2022-11-09T17:01:11.111Z,9.37
2022-11-09T17:03:36.901Z,9.41
2022-11-09T17:06:03.736Z,9.33
2022-11-09T17:08:30.412Z,9.26
2022-11-09T17:10:56.967Z,9.38
2022-11-09T17:13:23.498Z,9.38
2022-11-09T17:15:52.558Z,9.34
2022-11-09T17:18:19.585Z,9.36
2022-11-09T17:20:49.236Z,9.38
2022-11-09T17:23:18.832Z,9.35
2022-11-09T17:26:02.824Z,9.39
2022-11-09T17:28:29.844Z,9.37
2022-11-09T17:30:56.585Z,9.35
2022-11-09T17:33:24.723Z,9.38
2022-11-09T17:36:02.796Z,9.34
2022-11-09T17:38:30.099Z,9.37
2022-11-09T17:41:29.147Z,9.36
2022-11-09T17:43:55.636Z,9.31
2022-11-09T17:46:22.764Z,9.31
2022-11-09T17:48:49.998Z,9.39
2022-11-09T17:51:18.175Z,9.41
2022-11-09T17:53:45.458Z,9.45
2022-11-09T17:56:12.322Z,9.45
2022-11-09T17:58:41.066Z,9.40
2022-11-09T18:01:09.518Z,9.38
2022-11-09T18:03:37.246Z,9.46
2022-11-09T18:06:08.988Z,9.52
2022-11-09T18:08:35.498Z,9.46
2022-11-09T18:11:02.122Z,9.51
2022-11-09T18:13:28.679Z,9.47
2022-11-09T18:15:55.209Z,9.49
2022-11-09T18:18:22.154Z,9.55
2022-11-09T18:20:49.518Z,9.43
2022-11-09T18:23:15.976Z,9.30
2022-11-09T18:25:42.467Z,9.28
2022-11-09T18:28:12.789Z,9.25
2022-11-09T18:30:41.692Z,9.24
2022-11-09T18:33:08.899Z,9.36
2022-11-09T18:35:35.373Z,9.24
2022-11-09T18:38:01.837Z,9.42
2022-11-09T18:40:28.339Z,9.45
2022-11-09T18:42:54.900Z,9.54
2022-11-09T18:45:21.827Z,9.52
2022-11-09T18:47:49.584Z,9.73
2022-11-09T18:50:17.614Z,9.82
2022-11-09T18:52:44.180Z,9.75
2022-11-09T18:55:11.076Z,9.88
2022-11-09T18:57:37.612Z,9.87
2022-11-09T19:00:05.533Z,9.72
2022-11-09T19:02:32.064Z,9.81
2022-11-09T19:04:58.594Z,9.87
2022-11-09T19:07:25.117Z,9.96
2022-11-09T19:09:55.484Z,9.94
2022-11-09T19:12:24.242Z,9.92
2022-11-09T19:14:50.872Z,9.94
2022-11-09T19:17:17.381Z,9.98
2022-11-09T19:19:43.887Z,9.98
2022-11-09T19:22:16.801Z,9.84
2022-11-09T19:24:44.035Z,9.89
2022-11-09T19:27:10.638Z,9.97
2022-11-09T19:29:37.211Z,9.99
2022-11-09T19:32:04.070Z,10.04
2022-11-09T19:34:30.876Z,10.03
2022-11-09T19:36:57.457Z,10.02
2022-11-09T19:39:23.956Z,10.06
2022-11-09T19:41:50.468Z,10.00
2022-11-09T19:44:18.116Z,10.07
2022-11-09T19:46:45.156Z,10.04
2022-11-09T19:49:11.775Z,10.04
2022-11-09T19:51:39.453Z,9.93
2022-11-09T19:54:06.741Z,9.74
2022-11-09T19:56:33.776Z,10.03
2022-11-09T19:59:02.158Z,10.05
2022-11-09T20:01:30.721Z,10.04
2022-11-09T20:03:59.302Z,10.04
2022-11-09T20:06:26.672Z,10.02
2022-11-09T20:08:53.876Z,10.01
2022-11-09T20:11:41.740Z,9.74
2022-11-09T20:14:11.010Z,9.62
2022-11-09T20:16:37.969Z,9.47
2022-11-09T20:19:05.823Z,9.60
2022-11-09T20:21:32.493Z,9.81
2022-11-09T20:23:59.204Z,9.84
2022-11-09T20:26:25.733Z,9.93
2022-11-09T20:28:53.556Z,9.93
2022-11-09T20:31:21.682Z,9.66
2022-11-09T20:33:49.005Z,9.52
2022-11-09T20:36:15.562Z,9.67
2022-11-09T20:38:42.320Z,9.61
2022-11-09T20:41:11.342Z,9.68
2022-11-09T20:43:38.306Z,9.55
2022-11-09T20:46:08.128Z,9.52
2022-11-09T20:51:22.659Z,9.77
2022-11-09T20:53:50.241Z,9.88
2022-11-09T20:56:18.271Z,9.68
2022-11-09T20:58:45.156Z,9.47
2022-11-09T21:01:17.691Z,9.41
2022-11-09T21:03:44.862Z,9.52
2022-11-09T21:06:13.493Z,9.39
2022-11-09T21:08:40.341Z,9.34
2022-11-09T21:11:08.157Z,9.34
2022-11-09T21:13:34.739Z,9.36
2022-11-09T21:16:13.898Z,9.41
2022-11-09T21:18:41.107Z,9.36
2022-11-09T21:21:10.147Z,9.33
2022-11-09T21:23:56.265Z,9.49
2022-11-09T21:26:41.883Z,9.38
2022-11-09T21:29:29.455Z,9.40
2022-11-09T21:31:55.919Z,9.38
2022-11-09T21:34:22.439Z,9.38
2022-11-09T21:36:48.992Z,9.42
2022-11-09T21:39:15.517Z,9.25
2022-11-09T21:41:42.021Z,9.19
2022-11-09T21:44:10.442Z,9.15
2022-11-09T21:46:39.141Z,9.22
2022-11-09T21:49:07.371Z,9.16
2022-11-09T21:51:35.051Z,9.18
2022-11-09T21:54:01.615Z,9.15
2022-11-09T21:56:28.552Z,9.14
2022-11-09T21:58:55.268Z,9.30
2022-11-09T22:01:22.504Z,9.38
2022-11-09T22:03:49.157Z,9.48
2022-11-09T22:06:16.726Z,9.41
2022-11-09T22:08:43.499Z,9.55
2022-11-09T22:11:16.225Z,9.43
2022-11-09T22:14:02.040Z,9.45
2022-11-09T22:16:31.981Z,9.43
2022-11-09T22:19:17.267Z,9.89
2022-11-09T22:21:43.783Z,10.37
2022-11-09T22:24:10.641Z,10.92
2022-11-09T22:26:37.238Z,11.13
2022-11-09T22:29:04.347Z,11.25
2022-11-09T22:31:30.843Z,11.36
2022-11-09T22:33:57.387Z,11.41
2022-11-09T22:36:23.976Z,11.51
2022-11-09T22:38:51.071Z,11.49
2022-11-09T22:41:17.857Z,11.50
2022-11-09T22:43:44.810Z,11.53
2022-11-09T22:46:16.999Z,11.50
2022-11-09T22:48:44.686Z,11.55
2022-11-09T22:51:14.009Z,11.59
2022-11-09T22:53:41.034Z,11.58
2022-11-09T22:56:10.818Z,11.51
2022-11-09T22:58:37.439Z,11.54
2022-11-09T23:01:15.643Z,11.59
2022-11-09T23:03:43.705Z,11.48
2022-11-09T23:06:16.629Z,11.52
2022-11-09T23:08:43.159Z,11.48
2022-11-09T23:11:12.475Z,11.44
2022-11-09T23:13:39.180Z,10.78
2022-11-09T23:16:08.636Z,10.50
2022-11-09T23:18:54.716Z,10.29
2022-11-09T23:21:24.067Z,10.45
2022-11-09T23:23:51.078Z,10.54
2022-11-09T23:26:18.129Z,10.35
2022-11-09T23:28:44.682Z,10.16
2022-11-09T23:31:14.628Z,10.38
2022-11-09T23:33:41.809Z,10.25
2022-11-09T23:36:10.887Z,10.51
2022-11-09T23:38:39.168Z,10.30
2022-11-09T23:41:09.727Z,10.38
2022-11-09T23:43:36.999Z,10.46
2022-11-09T23:46:09.193Z,10.78
2022-11-09T23:48:36.125Z,10.90
2022-11-09T23:51:04.004Z,11.02
2022-11-09T23:53:31.802Z,11.02
2022-11-09T23:56:03.415Z,11.12
2022-11-09T23:58:30.307Z,11.21
